createdAt,value
2023-04-15T00:01:42.974Z,11.80
2023-04-15T00:04:11.195Z,11.80
2023-04-15T00:06:39.857Z,11.80
2023-04-15T00:09:07.414Z,11.80
2023-04-15T00:11:35.628Z,11.80
2023-04-15T00:14:03.266Z,11.74
2023-04-15T00:16:30.939Z,11.74
2023-04-15T00:18:59.224Z,11.70
2023-04-15T00:21:29.142Z,11.70
2023-04-15T00:23:57.443Z,11.70
2023-04-15T00:26:25.151Z,11.70
2023-04-15T00:28:53.104Z,11.70
2023-04-15T00:31:20.933Z,11.70
2023-04-15T00:33:48.718Z,11.60
2023-04-15T00:36:16.357Z,11.60
2023-04-15T00:38:43.966Z,11.60
2023-04-15T00:41:12.932Z,11.60
2023-04-15T00:43:40.915Z,11.60
2023-04-15T00:46:10.649Z,11.60
2023-04-15T00:48:39.046Z,11.56
2023-04-15T00:51:07.627Z,11.50
2023-04-15T00:53:35.328Z,11.50
2023-04-15T00:56:02.915Z,11.42
2023-04-15T00:58:30.629Z,11.40
2023-04-15T01:00:59.640Z,11.40
2023-04-15T01:03:29.512Z,11.40
2023-04-15T01:06:00.902Z,11.40
2023-04-15T01:08:30.907Z,11.40
2023-04-15T01:11:03.583Z,11.40
2023-04-15T01:13:34.154Z,11.40
2023-04-15T01:16:03.167Z,11.40
2023-04-15T01:18:31.776Z,11.40
2023-04-15T01:21:05.163Z,11.40
2023-04-15T01:23:38.650Z,11.40
2023-04-15T01:26:09.206Z,11.30
2023-04-15T01:28:38.393Z,11.30
2023-04-15T01:31:12.612Z,11.30
2023-04-15T01:33:43.299Z,11.26
2023-04-15T01:36:11.004Z,11.20
2023-04-15T01:38:39.240Z,11.20
2023-04-15T01:41:09.722Z,11.20
2023-04-15T01:43:37.746Z,11.20
2023-04-15T01:46:06.246Z,11.20
2023-04-15T01:48:34.537Z,11.12
2023-04-15T01:51:02.182Z,11.20
2023-04-15T01:53:30.085Z,11.10
2023-04-15T01:55:57.836Z,11.14
2023-04-15T01:58:25.585Z,11.20
2023-04-15T02:00:53.760Z,11.20
2023-04-15T02:03:21.909Z,11.20
2023-04-15T02:05:51.124Z,11.20
2023-04-15T02:08:18.752Z,11.20
2023-04-15T02:10:46.624Z,11.20
2023-04-15T02:13:14.843Z,11.20
2023-04-15T02:15:50.778Z,11.20
2023-04-15T02:18:18.618Z,11.30
2023-04-15T02:20:47.165Z,11.30
2023-04-15T02:23:14.774Z,11.30
2023-04-15T02:25:42.419Z,11.30
2023-04-15T02:28:21.944Z,11.30
2023-04-15T02:30:54.336Z,11.32
2023-04-15T02:33:22.027Z,11.34
2023-04-15T02:35:49.645Z,11.40
2023-04-15T02:38:18.058Z,11.40
2023-04-15T02:40:46.249Z,11.40
2023-04-15T02:43:13.826Z,11.36
2023-04-15T02:45:43.470Z,11.34
2023-04-15T02:48:11.577Z,11.34
2023-04-15T02:50:40.678Z,11.30
2023-04-15T02:53:08.294Z,11.38
2023-04-15T02:55:36.027Z,11.30
2023-04-15T02:58:03.699Z,11.32
2023-04-15T03:00:31.750Z,11.30
2023-04-15T03:03:05.309Z,11.30
2023-04-15T03:05:33.237Z,11.30
2023-04-15T03:08:01.402Z,11.30
2023-04-15T03:10:29.144Z,11.30
2023-04-15T03:12:56.735Z,11.30
2023-04-15T03:15:24.421Z,11.20
2023-04-15T03:17:52.145Z,11.20
2023-04-15T03:20:20.387Z,11.20
2023-04-15T03:22:48.028Z,11.20
2023-04-15T03:25:15.800Z,11.20
2023-04-15T03:27:43.475Z,11.20
2023-04-15T03:30:12.446Z,11.18
2023-04-15T03:32:40.472Z,11.10
2023-04-15T03:35:09.652Z,11.10
2023-04-15T03:37:37.328Z,11.10
2023-04-15T03:40:05.854Z,11.10
2023-04-15T03:42:33.479Z,11.10
2023-04-15T03:45:01.508Z,11.10
2023-04-15T03:47:29.358Z,11.08
2023-04-15T03:49:56.987Z,11.02
2023-04-15T03:52:24.643Z,11.02
2023-04-15T03:54:52.356Z,11.00
2023-04-15T03:57:20.616Z,11.00
2023-04-15T03:59:48.205Z,11.00
2023-04-15T04:02:16.440Z,11.00
2023-04-15T04:04:44.364Z,10.92
2023-04-15T04:07:18.921Z,10.90
2023-04-15T04:09:47.427Z,10.90
2023-04-15T04:12:15.667Z,10.80
2023-04-15T04:14:43.368Z,10.80
2023-04-15T04:17:11.254Z,10.70
2023-04-15T04:19:38.968Z,10.70
2023-04-15T04:22:06.732Z,10.70
2023-04-15T04:24:34.534Z,10.62
2023-04-15T04:27:02.236Z,10.60
2023-04-15T04:29:32.859Z,10.60
2023-04-15T04:32:00.680Z,10.56
2023-04-15T04:34:28.366Z,10.50
2023-04-15T04:36:55.993Z,10.50
2023-04-15T04:39:24.564Z,10.50
2023-04-15T04:41:52.505Z,10.50
2023-04-15T04:44:20.189Z,10.50
2023-04-15T04:46:47.758Z,10.50
2023-04-15T04:49:15.501Z,10.50
2023-04-15T04:51:43.301Z,10.50
2023-04-15T04:54:11.005Z,10.50
2023-04-15T04:56:39.923Z,10.50
2023-04-15T04:59:07.889Z,10.52
2023-04-15T05:01:35.722Z,10.50
2023-04-15T05:04:05.511Z,10.50
2023-04-15T05:06:33.900Z,10.50
2023-04-15T05:09:01.963Z,10.52
2023-04-15T05:11:30.007Z,10.52
2023-04-15T05:13:58.266Z,10.60
2023-04-15T05:16:26.070Z,10.60
2023-04-15T05:18:54.044Z,10.60
2023-04-15T05:21:21.871Z,10.60
2023-04-15T05:23:49.564Z,10.60
2023-04-15T05:26:17.770Z,10.60
2023-04-15T05:28:45.338Z,10.60
2023-04-15T05:31:14.115Z,10.60
2023-04-15T05:33:41.981Z,10.60
2023-04-15T05:36:09.991Z,10.60
2023-04-15T05:38:37.614Z,10.60
2023-04-15T05:41:05.565Z,10.60
2023-04-15T05:43:33.257Z,10.70
2023-04-15T05:46:01.107Z,10.70
2023-04-15T05:48:28.904Z,10.70
2023-04-15T05:50:56.649Z,10.70
2023-04-15T05:53:24.383Z,10.70
2023-04-15T05:55:55.898Z,10.70
2023-04-15T05:58:23.536Z,10.70
2023-04-15T06:00:51.333Z,10.70
2023-04-15T06:06:04.559Z,10.70
2023-04-15T06:08:32.274Z,10.70
2023-04-15T06:11:00.184Z,10.70
2023-04-15T06:13:27.895Z,10.68
2023-04-15T06:15:55.577Z,10.60
2023-04-15T06:18:23.247Z,10.60
2023-04-15T06:20:51.668Z,10.60
2023-04-15T06:23:19.344Z,10.60
2023-04-15T06:25:47.067Z,10.60
2023-04-15T06:28:14.713Z,10.60
2023-04-15T06:30:42.515Z,10.60
2023-04-15T06:33:10.837Z,10.60
2023-04-15T06:35:39.167Z,10.58
2023-04-15T06:38:07.104Z,10.52
2023-04-15T06:40:34.965Z,10.50
2023-04-15T06:43:02.648Z,10.50
2023-04-15T06:45:31.315Z,10.50
2023-04-15T06:47:59.267Z,10.52
2023-04-15T06:50:27.470Z,10.60
2023-04-15T06:52:56.320Z,10.60
2023-04-15T06:55:24.053Z,10.62
2023-04-15T06:57:51.696Z,10.70
2023-04-15T07:00:20.395Z,10.70
2023-04-15T07:02:48.514Z,10.80
2023-04-15T07:05:16.208Z,10.80
2023-04-15T07:07:44.092Z,10.80
2023-04-15T07:10:12.178Z,10.80
2023-04-15T07:12:40.092Z,10.80
2023-04-15T07:15:08.249Z,10.80
2023-04-15T07:17:36.208Z,10.90
2023-04-15T07:20:04.993Z,11.00
2023-04-15T07:22:33.162Z,11.00
2023-04-15T07:25:01.123Z,11.12
2023-04-15T07:27:28.830Z,11.30
2023-04-15T07:29:56.602Z,11.50
2023-04-15T07:32:24.422Z,11.50
2023-04-15T07:34:52.077Z,11.50
2023-04-15T07:37:19.975Z,11.60
2023-04-15T07:39:48.040Z,11.60
2023-04-15T07:42:15.852Z,11.70
2023-04-15T07:44:45.638Z,11.70
2023-04-15T07:47:13.355Z,11.70
2023-04-15T07:49:43.467Z,11.80
2023-04-15T07:52:11.459Z,11.80
2023-04-15T07:54:39.861Z,11.80
2023-04-15T07:57:07.921Z,11.80
2023-04-15T07:59:35.804Z,11.90
2023-04-15T08:02:04.211Z,12.10
2023-04-15T08:04:32.643Z,12.28
2023-04-15T08:07:00.330Z,12.40
2023-04-15T08:09:28.019Z,12.50
2023-04-15T08:11:57.085Z,12.60
2023-04-15T08:14:24.944Z,12.76
2023-04-15T08:16:52.553Z,12.80
2023-04-15T08:19:20.741Z,12.80
2023-04-15T08:21:48.518Z,12.70
2023-04-15T08:24:16.136Z,12.70
2023-04-15T08:26:43.802Z,12.80
2023-04-15T08:29:11.690Z,12.88
2023-04-15T08:31:39.444Z,13.00
2023-04-15T08:34:07.308Z,13.10
2023-04-15T08:36:35.708Z,13.20
2023-04-15T08:39:05.037Z,13.36
2023-04-15T08:41:59.426Z,13.50
2023-04-15T08:44:34.954Z,13.60
2023-04-15T08:47:06.118Z,13.60
2023-04-15T08:49:40.061Z,13.70
2023-04-15T08:52:09.452Z,13.70
2023-04-15T08:54:38.736Z,13.70
2023-04-15T08:57:08.006Z,13.80
2023-04-15T08:59:35.785Z,13.90
2023-04-15T09:02:04.545Z,14.00
2023-04-15T09:04:33.070Z,14.00
2023-04-15T09:07:00.738Z,13.98
2023-04-15T09:09:29.187Z,14.00
2023-04-15T09:11:56.889Z,14.00
2023-04-15T09:14:24.603Z,14.00
2023-04-15T09:17:01.424Z,14.08
2023-04-15T09:19:30.947Z,14.10
2023-04-15T09:22:00.051Z,14.20
2023-04-15T09:24:38.660Z,14.20
2023-04-15T09:27:07.080Z,14.10
2023-04-15T09:29:35.069Z,14.00
2023-04-15T09:32:15.009Z,13.90
2023-04-15T09:34:43.319Z,13.92
2023-04-15T09:37:24.257Z,13.96
2023-04-15T09:39:59.176Z,13.92
2023-04-15T09:42:28.343Z,14.00
2023-04-15T09:44:56.008Z,14.00
2023-04-15T09:47:32.965Z,14.08
2023-04-15T09:50:02.436Z,14.10
2023-04-15T09:52:30.600Z,14.18
2023-04-15T09:54:59.840Z,14.24
2023-04-15T09:57:36.761Z,14.30
2023-04-15T10:00:11.527Z,14.40
2023-04-15T10:02:44.826Z,14.50
2023-04-15T10:05:17.721Z,14.50
2023-04-15T10:07:46.837Z,14.44
2023-04-15T10:10:15.211Z,14.50
2023-04-15T10:12:45.111Z,14.50
2023-04-15T10:15:17.580Z,14.50
2023-04-15T10:17:46.139Z,14.50
2023-04-15T10:20:16.382Z,14.60
2023-04-15T10:22:46.923Z,14.60
2023-04-15T10:25:16.505Z,14.52
2023-04-15T10:27:45.070Z,14.50
2023-04-15T10:30:13.154Z,14.50
2023-04-15T10:32:42.186Z,14.50
2023-04-15T10:35:11.215Z,14.50
2023-04-15T10:37:39.435Z,14.40
2023-04-15T10:40:28.468Z,14.40
2023-04-15T10:43:06.115Z,14.40
2023-04-15T10:45:37.309Z,14.42
2023-04-15T10:48:09.123Z,14.40
2023-04-15T10:50:37.941Z,14.40
2023-04-15T10:53:06.030Z,14.40
2023-04-15T10:55:35.136Z,14.40
2023-04-15T10:58:03.300Z,14.30
2023-04-15T11:00:32.993Z,14.28
2023-04-15T11:03:10.957Z,14.20
2023-04-15T11:05:42.019Z,14.14
2023-04-15T11:08:13.588Z,14.10
2023-04-15T11:10:41.380Z,14.10
2023-04-15T11:13:11.841Z,14.00
2023-04-15T11:15:41.961Z,14.00
2023-04-15T11:18:19.636Z,14.00
2023-04-15T11:20:59.616Z,14.00
2023-04-15T11:23:41.376Z,14.00
2023-04-15T11:26:12.220Z,14.00
2023-04-15T11:28:43.772Z,14.00
2023-04-15T11:31:18.472Z,14.00
2023-04-15T11:33:59.407Z,14.00
2023-04-15T11:36:30.195Z,14.00
2023-04-15T11:38:59.933Z,14.02
2023-04-15T11:41:28.593Z,14.00
2023-04-15T11:43:56.405Z,14.02
2023-04-15T11:46:31.856Z,14.10
2023-04-15T11:49:00.310Z,14.10
2023-04-15T11:51:34.412Z,14.16
2023-04-15T11:54:04.022Z,14.20
2023-04-15T11:56:32.111Z,14.20
2023-04-15T11:59:00.147Z,14.30
2023-04-15T12:01:47.777Z,14.30
2023-04-15T12:04:24.253Z,14.34
2023-04-15T12:06:53.427Z,14.40
2023-04-15T12:09:21.738Z,14.50
2023-04-15T12:11:58.276Z,14.50
2023-04-15T12:14:29.208Z,14.50
2023-04-15T12:17:06.656Z,14.50
2023-04-15T12:19:40.411Z,14.50
2023-04-15T12:22:15.280Z,14.50
2023-04-15T12:24:47.885Z,14.50
2023-04-15T12:27:16.939Z,14.50
2023-04-15T12:29:44.683Z,14.50
2023-04-15T12:32:19.875Z,14.50
2023-04-15T12:34:54.291Z,14.60
2023-04-15T12:37:22.497Z,14.60
2023-04-15T12:39:51.725Z,14.60
2023-04-15T12:42:19.823Z,14.60
2023-04-15T12:44:47.445Z,14.60
2023-04-15T12:47:15.341Z,14.60
2023-04-15T12:49:43.358Z,14.62
2023-04-15T12:52:11.358Z,14.68
2023-04-15T12:54:39.403Z,14.64
2023-04-15T12:57:07.775Z,14.66
2023-04-15T12:59:36.458Z,14.60
2023-04-15T13:02:04.631Z,14.60
2023-04-15T13:04:32.628Z,14.60
2023-04-15T13:07:02.393Z,14.60
2023-04-15T13:09:30.191Z,14.60
2023-04-15T13:11:58.367Z,14.60
2023-04-15T13:14:27.052Z,14.60
2023-04-15T13:16:55.092Z,14.60
2023-04-15T13:19:22.985Z,14.60
2023-04-15T13:21:51.040Z,14.60
2023-04-15T13:24:18.746Z,14.60
2023-04-15T13:26:48.044Z,14.60
2023-04-15T13:29:17.400Z,14.60
2023-04-15T13:31:45.085Z,14.60
2023-04-15T13:34:12.745Z,14.60
2023-04-15T13:36:40.460Z,14.60
2023-04-15T13:39:08.146Z,14.60
2023-04-15T13:41:37.494Z,14.60
2023-04-15T13:44:06.534Z,14.60
2023-04-15T13:46:34.432Z,14.60
2023-04-15T13:49:02.057Z,14.60
2023-04-15T13:51:29.663Z,14.60
2023-04-15T13:53:58.189Z,14.60
2023-04-15T13:56:26.050Z,14.60
2023-04-15T13:58:54.986Z,14.52
2023-04-15T14:01:22.697Z,14.60
2023-04-15T14:03:50.588Z,14.60
2023-04-15T14:06:18.546Z,14.60
2023-04-15T14:08:46.418Z,14.60
2023-04-15T14:11:14.108Z,14.58
2023-04-15T14:13:41.779Z,14.58
2023-04-15T14:16:09.583Z,14.50
2023-04-15T14:18:37.679Z,14.50
2023-04-15T14:21:07.160Z,14.50
2023-04-15T14:23:35.000Z,14.40
2023-04-15T14:26:02.746Z,14.40
2023-04-15T14:28:30.547Z,14.38
2023-04-15T14:30:58.979Z,14.30
2023-04-15T14:33:26.882Z,14.30
2023-04-15T14:35:54.629Z,14.30
2023-04-15T14:38:22.818Z,14.30
2023-04-15T14:40:50.866Z,14.30
2023-04-15T14:43:18.748Z,14.24
2023-04-15T14:45:46.505Z,14.22
2023-04-15T14:48:14.181Z,14.26
2023-04-15T14:50:42.248Z,14.22
2023-04-15T14:53:09.941Z,14.20
2023-04-15T14:55:37.912Z,14.20
2023-04-15T14:58:09.424Z,14.20
2023-04-15T15:00:40.543Z,14.10
2023-04-15T15:03:13.082Z,14.04
2023-04-15T15:05:47.049Z,14.00
2023-04-15T15:08:14.898Z,14.00
2023-04-15T15:10:49.002Z,13.94
2023-04-15T15:13:18.995Z,13.90
2023-04-15T15:15:49.771Z,13.90
2023-04-15T15:18:19.324Z,13.90
2023-04-15T15:20:47.854Z,13.90
2023-04-15T15:23:16.279Z,13.90
2023-04-15T15:25:45.813Z,13.90
2023-04-15T15:28:13.607Z,13.90
2023-04-15T15:30:41.255Z,13.90
2023-04-15T15:33:08.941Z,13.90
2023-04-15T15:35:36.623Z,13.90
2023-04-15T15:38:04.423Z,13.90
2023-04-15T15:40:32.133Z,13.90
2023-04-15T15:42:59.880Z,13.90
2023-04-15T15:45:27.796Z,13.90
2023-04-15T15:47:57.119Z,13.90
2023-04-15T15:50:24.890Z,13.80
2023-04-15T15:52:52.546Z,13.74
2023-04-15T15:55:20.219Z,13.70
2023-04-15T15:57:47.940Z,13.56
2023-04-15T16:00:15.925Z,13.50
2023-04-15T16:05:15.025Z,13.40
2023-04-15T16:07:42.790Z,13.30
2023-04-15T16:10:11.149Z,13.30
2023-04-15T16:12:38.809Z,13.20
2023-04-15T16:15:07.388Z,13.20
2023-04-15T16:17:35.602Z,13.10
2023-04-15T16:20:05.654Z,13.10
2023-04-15T16:22:35.262Z,13.00
2023-04-15T16:25:03.798Z,13.00
2023-04-15T16:27:31.705Z,13.00
2023-04-15T16:29:59.369Z,13.00
2023-04-15T16:32:27.148Z,12.94
2023-04-15T16:34:55.663Z,12.90
2023-04-15T16:37:23.465Z,12.90
2023-04-15T16:39:51.273Z,12.90
2023-04-15T16:42:19.048Z,12.80
2023-04-15T16:44:46.750Z,12.80
2023-04-15T16:47:14.933Z,12.80
2023-04-15T16:49:42.747Z,12.72
2023-04-15T16:52:11.006Z,12.70
2023-04-15T16:54:41.582Z,12.70
2023-04-15T16:57:09.603Z,12.66
2023-04-15T16:59:38.092Z,12.60
2023-04-15T17:02:06.146Z,12.60
2023-04-15T17:04:35.055Z,12.60
2023-04-15T17:07:03.941Z,12.60
2023-04-15T17:09:31.600Z,12.58
2023-04-15T17:11:59.599Z,12.50
2023-04-15T17:14:29.117Z,12.54
2023-04-15T17:16:57.515Z,12.50
2023-04-15T17:19:26.883Z,12.50
2023-04-15T17:21:55.190Z,12.50
2023-04-15T17:24:24.040Z,12.50
2023-04-15T17:26:53.002Z,12.50
2023-04-15T17:29:20.850Z,12.50
2023-04-15T17:31:49.287Z,12.50
2023-04-15T17:34:17.074Z,12.48
2023-04-15T17:36:44.990Z,12.42
2023-04-15T17:39:14.134Z,12.40
2023-04-15T17:41:41.880Z,12.40
2023-04-15T17:44:09.617Z,12.40
2023-04-15T17:46:37.385Z,12.40
2023-04-15T17:49:06.661Z,12.36
2023-04-15T17:51:34.967Z,12.30
2023-04-15T17:54:02.860Z,12.30
2023-04-15T17:56:30.557Z,12.30
2023-04-15T17:59:00.489Z,12.30
2023-04-15T18:01:29.562Z,12.30
2023-04-15T18:03:57.440Z,12.30
2023-04-15T18:06:26.647Z,12.30
2023-04-15T18:08:55.059Z,12.30
2023-04-15T18:11:23.690Z,12.20
2023-04-15T18:13:51.493Z,12.20
2023-04-15T18:16:19.575Z,12.10
2023-04-15T18:18:48.290Z,12.10
2023-04-15T18:21:16.591Z,12.00
2023-04-15T18:23:44.625Z,11.94
2023-04-15T18:26:13.814Z,11.90
2023-04-15T18:28:41.858Z,11.80
2023-04-15T18:31:09.636Z,11.80
2023-04-15T18:33:39.268Z,11.80
2023-04-15T18:36:07.040Z,11.70
2023-04-15T18:38:34.856Z,11.70
2023-04-15T18:41:02.967Z,11.62
2023-04-15T18:43:32.255Z,11.60
2023-04-15T18:46:01.845Z,11.60
2023-04-15T18:48:30.704Z,11.60
2023-04-15T18:50:58.858Z,11.60
2023-04-15T18:53:28.118Z,11.56
2023-04-15T18:55:56.603Z,11.50
2023-04-15T18:58:24.747Z,11.50
2023-04-15T19:00:52.871Z,11.50
2023-04-15T19:03:20.858Z,11.42
2023-04-15T19:05:49.131Z,11.40
2023-04-15T19:08:16.925Z,11.40
2023-04-15T19:10:44.797Z,11.40
2023-04-15T19:13:12.538Z,11.40
2023-04-15T19:15:40.795Z,11.40
2023-04-15T19:18:10.634Z,11.30
2023-04-15T19:20:40.019Z,11.18
2023-04-15T19:23:08.137Z,11.00
2023-04-15T19:25:35.957Z,10.90
2023-04-15T19:28:04.032Z,10.94
2023-04-15T19:30:32.921Z,11.00
2023-04-15T19:33:00.852Z,11.00
2023-04-15T19:35:28.571Z,11.06
2023-04-15T19:37:56.633Z,11.10
2023-04-15T19:40:25.600Z,11.16
2023-04-15T19:42:53.244Z,11.20
2023-04-15T19:45:21.044Z,11.20
2023-04-15T19:47:49.158Z,11.20
2023-04-15T19:50:19.312Z,11.24
2023-04-15T19:52:47.173Z,11.30
2023-04-15T19:55:15.229Z,11.30
2023-04-15T19:57:43.022Z,11.30
2023-04-15T20:00:11.670Z,11.30
2023-04-15T20:02:39.624Z,11.30
2023-04-15T20:05:10.055Z,11.30
2023-04-15T20:07:39.767Z,11.30
2023-04-15T20:10:12.145Z,11.30
2023-04-15T20:12:49.934Z,11.30
2023-04-15T20:15:22.777Z,11.30
2023-04-15T20:17:50.674Z,11.30
2023-04-15T20:20:18.804Z,11.30
2023-04-15T20:22:46.658Z,11.30
2023-04-15T20:25:15.693Z,11.30
2023-04-15T20:27:44.936Z,11.20
2023-04-15T20:30:12.753Z,11.20
2023-04-15T20:32:40.553Z,11.20
2023-04-15T20:35:08.531Z,11.12
2023-04-15T20:37:37.891Z,11.10
2023-04-15T20:40:06.752Z,11.04
2023-04-15T20:42:34.621Z,11.00
2023-04-15T20:45:02.684Z,11.00
2023-04-15T20:47:30.451Z,11.00
2023-04-15T20:49:58.293Z,10.90
2023-04-15T20:52:26.234Z,10.90
2023-04-15T20:54:53.905Z,10.84
2023-04-15T20:57:21.570Z,10.80
2023-04-15T20:59:49.232Z,10.80
2023-04-15T21:02:17.070Z,10.76
2023-04-15T21:04:47.242Z,10.70
2023-04-15T21:07:15.877Z,10.70
2023-04-15T21:09:43.840Z,10.60
2023-04-15T21:12:11.623Z,10.60
2023-04-15T21:14:40.119Z,10.50
2023-04-15T21:17:10.874Z,10.50
2023-04-15T21:19:39.208Z,10.50
2023-04-15T21:22:06.870Z,10.50
2023-04-15T21:24:34.626Z,10.44
2023-04-15T21:27:02.493Z,10.40
2023-04-15T21:29:30.283Z,10.40
2023-04-15T21:31:58.038Z,10.40
2023-04-15T21:34:25.800Z,10.40
2023-04-15T21:36:53.570Z,10.40
2023-04-15T21:39:21.579Z,10.40
2023-04-15T21:41:49.339Z,10.40
2023-04-15T21:44:17.119Z,10.46
2023-04-15T21:46:46.109Z,10.42
2023-04-15T21:49:14.260Z,10.40
2023-04-15T21:51:42.235Z,10.40
2023-04-15T21:54:10.112Z,10.48
2023-04-15T21:56:37.974Z,10.50
2023-04-15T21:59:06.557Z,10.50
2023-04-15T22:01:34.432Z,10.60
2023-04-15T22:04:02.578Z,10.60
2023-04-15T22:06:31.730Z,10.60
2023-04-15T22:08:59.699Z,10.54
2023-04-15T22:11:28.514Z,10.50
2023-04-15T22:13:57.660Z,10.50
2023-04-15T22:16:28.500Z,10.50
2023-04-15T22:18:56.483Z,10.50
2023-04-15T22:21:24.241Z,10.50
2023-04-15T22:23:53.013Z,10.42
2023-04-15T22:26:40.692Z,10.40
2023-04-15T22:29:08.378Z,10.40
2023-04-15T22:31:36.318Z,10.40
2023-04-15T22:34:04.040Z,10.30
2023-04-15T22:36:31.779Z,10.30
2023-04-15T22:38:59.383Z,10.30
2023-04-15T22:41:27.316Z,10.30
2023-04-15T22:43:54.985Z,10.30
2023-04-15T22:46:22.767Z,10.30
2023-04-15T22:48:50.475Z,10.30
2023-04-15T22:51:22.752Z,10.30
2023-04-15T22:53:50.713Z,10.30
2023-04-15T22:56:20.909Z,10.26
2023-04-15T22:58:49.651Z,10.24
2023-04-15T23:01:18.489Z,10.20
2023-04-15T23:03:57.443Z,10.20
2023-04-15T23:06:34.796Z,10.20
2023-04-15T23:09:02.461Z,10.20
2023-04-15T23:11:32.380Z,10.20
2023-04-15T23:14:00.139Z,10.20
2023-04-15T23:16:27.806Z,10.20
2023-04-15T23:18:55.654Z,10.20
2023-04-15T23:21:25.483Z,10.30
2023-04-15T23:23:54.532Z,10.30
2023-04-15T23:26:22.224Z,10.30
2023-04-15T23:28:50.035Z,10.30
2023-04-15T23:31:17.741Z,10.40
2023-04-15T23:33:45.717Z,10.40
2023-04-15T23:36:13.323Z,10.40
2023-04-15T23:38:42.108Z,10.40
2023-04-15T23:41:12.032Z,10.40
2023-04-15T23:43:39.809Z,10.40
2023-04-15T23:46:08.517Z,10.40
2023-04-15T23:48:36.195Z,10.40
2023-04-15T23:51:05.104Z,10.36
2023-04-15T23:53:32.897Z,10.36
2023-04-15T23:56:00.549Z,10.30
2023-04-15T23:58:28.185Z,10.30
